Decoded Metar for K1S5 ( in ) (IATA:) | Meteo·Mobile Aviation Weather
aviador You're here:

K1S5 Decoded Metar

in
Report Time2019-02-17 16:15:00
UTC Time2019-02-17 16:24:59
Flight Rules lifr LIFR
WindCalm
Visibility3219 m
Phenomena:Mist
Clouds:Overcast 003 Hf
Ceiling300 ft
Temp00°C
Dew Point00°C (100% RH)
AAT-2.0°C
QNH1018 hPa
Raw Report
K1S5 171615Z AUTO 00000KT 2SM BR OVC003 00/00 A3006 RMK AO2
T00001001=

Extra information for K1S5:More info

Social comments